This is the latest recevied weather packets stored in our database for station/object K4IR. If no packets are shown the sender has not sent any weather packets the latest 10 day(s).
| Time | Temp. | Humidity | Pressure | Rain* | Wind** | Luminosity | Snow |
|---|---|---|---|---|---|---|---|
| 1787609838 | 27.22° C | 88% | 1012.7 hPa | 0 mm | - | 25 W/m² | - |
| 1787609233 | 27.78° C | 88% | 1012.9 hPa | 0 mm | - | 19 W/m² | - |
| 1787608629 | 27.78° C | 87% | 1013 hPa | 0 mm | - | 24 W/m² | - |
| 1787608026 | 28.33° C | 87% | 1012.9 hPa | 0 mm | - | 26 W/m² | - |
| 1787607424 | 28.33° C | 86% | 1012.6 hPa | 0 mm | - | 33 W/m² | - |
| 1787606822 | 28.89° C | 85% | 1013 hPa | 0 mm | - | 40 W/m² | - |
| 1787606220 | 28.89° C | 85% | 1012.9 hPa | 0 mm | - | 52 W/m² | - |
| 1787605618 | 29.44° C | 83% | 1012.7 hPa | 0 mm | - | 75 W/m² | - |
| 1787605015 | 30.56° C | 78% | 1013.1 hPa | 0 mm | - | 102 W/m² | - |
| 1787604415 | 31.11° C | 71% | 1012.7 hPa | 0 mm | - | 434 W/m² | - |
| 1787603815 | 30° C | 72% | 1012.8 hPa | 0 mm | - | 169 W/m² | - |
| 1787603212 | 31.11° C | 69% | 1012.8 hPa | 0 mm | - | 172 W/m² | - |
| 1787602609 | 30.56° C | 78% | 1012.4 hPa | 0 mm | - | 193 W/m² | - |
| 1787602004 | 29.44° C | 85% | 1012.7 hPa | 0 mm | - | 338 W/m² | - |
| 1787601399 | 28.33° C | 83% | 1012.6 hPa | 0 mm | - | 382 W/m² | - |
| 1787600798 | 27.78° C | 86% | 1012.7 hPa | 0 mm | - | 230 W/m² | - |
| 1787600196 | 27.78° C | 85% | 1012.7 hPa | 0 mm | - | 329 W/m² | - |
| 1787599594 | 26.67° C | 89% | 1013.2 hPa | 0 mm | - | 266 W/m² | - |
| 1787598991 | 25.56° C | 93% | 1013.5 hPa | 0 mm | - | 481 W/m² | - |
| 1787598387 | 26.67° C | 92% | 1013.9 hPa | 3.56 mm | - | 59 W/m² | - |
| 1787597784 | 28.33° C | 94% | 1013.6 hPa | 1.27 mm | - | 45 W/m² | - |
| 1787597182 | 28.89° C | 90% | 1013.6 hPa | 0 mm | - | 24 W/m² | - |
| 1787596581 | 29.44° C | 87% | 1012.9 hPa | 0 mm | - | 33 W/m² | - |
| 1787595978 | 30.56° C | 82% | 1012.9 hPa | 0 mm | - | 64 W/m² | - |
| 1787595375 | 32.78° C | 76% | 1012.7 hPa | 0 mm | - | 124 W/m² | - |
* Rain latest hour (hover to see other rain measurements)
** Current wind speed in m/s (hover to see current wind gust speed)